sensor_id;sensor_type;location;lat;lon;timestamp;P1;durP1;ratioP1;P2;durP2;ratioP2
4074;SDS011;2052;53.522;9.806;2022-12-29T00:00:00;11.00;;;7.90;;
4074;SDS011;2052;53.522;9.806;2022-12-29T00:02:28;8.30;;;5.33;;
4074;SDS011;2052;53.522;9.806;2022-12-29T00:04:54;9.13;;;6.20;;
4074;SDS011;2052;53.522;9.806;2022-12-29T00:07:21;9.50;;;6.17;;
4074;SDS011;2052;53.522;9.806;2022-12-29T00:09:48;7.77;;;6.23;;
4074;SDS011;2052;53.522;9.806;2022-12-29T00:12:15;9.57;;;6.20;;
4074;SDS011;2052;53.522;9.806;2022-12-29T00:14:42;9.90;;;6.50;;
4074;SDS011;2052;53.522;9.806;2022-12-29T00:17:27;6.93;;;5.90;;
4074;SDS011;2052;53.522;9.806;2022-12-29T00:19:54;9.40;;;6.43;;
4074;SDS011;2052;53.522;9.806;2022-12-29T00:22:38;9.43;;;6.27;;
4074;SDS011;2052;53.522;9.806;2022-12-29T00:25:22;9.30;;;6.47;;
4074;SDS011;2052;53.522;9.806;2022-12-29T00:28:07;10.57;;;7.00;;
4074;SDS011;2052;53.522;9.806;2022-12-29T00:30:53;12.63;;;7.60;;
4074;SDS011;2052;53.522;9.806;2022-12-29T00:33:37;8.60;;;6.87;;
4074;SDS011;2052;53.522;9.806;2022-12-29T00:36:22;11.30;;;7.47;;
4074;SDS011;2052;53.522;9.806;2022-12-29T00:38:50;9.97;;;6.97;;
4074;SDS011;2052;53.522;9.806;2022-12-29T00:41:36;9.77;;;7.20;;
4074;SDS011;2052;53.522;9.806;2022-12-29T00:44:20;7.13;;;6.40;;
4074;SDS011;2052;53.522;9.806;2022-12-29T00:46:48;8.70;;;6.97;;
4074;SDS011;2052;53.522;9.806;2022-12-29T00:49:15;8.13;;;6.37;;
4074;SDS011;2052;53.522;9.806;2022-12-29T00:51:57;10.70;;;6.60;;
4074;SDS011;2052;53.522;9.806;2022-12-29T00:54:25;11.10;;;6.00;;
4074;SDS011;2052;53.522;9.806;2022-12-29T00:56:52;8.47;;;5.60;;
4074;SDS011;2052;53.522;9.806;2022-12-29T00:59:19;9.63;;;6.67;;
4074;SDS011;2052;53.522;9.806;2022-12-29T01:01:46;7.67;;;5.70;;
4074;SDS011;2052;53.522;9.806;2022-12-29T01:04:14;7.50;;;6.13;;
4074;SDS011;2052;53.522;9.806;2022-12-29T01:06:41;8.87;;;6.07;;
4074;SDS011;2052;53.522;9.806;2022-12-29T01:09:08;8.53;;;6.30;;
4074;SDS011;2052;53.522;9.806;2022-12-29T01:11:53;8.97;;;5.83;;
4074;SDS011;2052;53.522;9.806;2022-12-29T01:14:20;7.60;;;5.63;;
4074;SDS011;2052;53.522;9.806;2022-12-29T01:16:48;7.10;;;5.97;;
4074;SDS011;2052;53.522;9.806;2022-12-29T01:19:16;7.80;;;5.50;;
4074;SDS011;2052;53.522;9.806;2022-12-29T01:21:43;6.60;;;5.93;;
4074;SDS011;2052;53.522;9.806;2022-12-29T01:24:10;8.17;;;6.10;;
4074;SDS011;2052;53.522;9.806;2022-12-29T01:26:37;8.50;;;6.20;;
4074;SDS011;2052;53.522;9.806;2022-12-29T01:29:03;6.50;;;5.90;;
4074;SDS011;2052;53.522;9.806;2022-12-29T01:31:30;6.90;;;5.53;;
4074;SDS011;2052;53.522;9.806;2022-12-29T01:33:57;7.60;;;6.00;;
4074;SDS011;2052;53.522;9.806;2022-12-29T01:36:25;12.20;;;5.20;;
4074;SDS011;2052;53.522;9.806;2022-12-29T01:38:52;6.87;;;6.00;;
4074;SDS011;2052;53.522;9.806;2022-12-29T01:41:19;7.50;;;5.47;;
4074;SDS011;2052;53.522;9.806;2022-12-29T01:43:46;8.27;;;5.87;;
4074;SDS011;2052;53.522;9.806;2022-12-29T01:46:22;6.70;;;5.50;;
4074;SDS011;2052;53.522;9.806;2022-12-29T01:48:53;7.27;;;6.13;;
4074;SDS011;2052;53.522;9.806;2022-12-29T01:51:21;9.10;;;5.47;;
4074;SDS011;2052;53.522;9.806;2022-12-29T01:53:51;7.10;;;6.13;;
4074;SDS011;2052;53.522;9.806;2022-12-29T01:56:19;8.60;;;6.53;;
4074;SDS011;2052;53.522;9.806;2022-12-29T01:58:47;10.50;;;6.10;;
4074;SDS011;2052;53.522;9.806;2022-12-29T02:01:15;10.53;;;6.47;;
4074;SDS011;2052;53.522;9.806;2022-12-29T02:03:44;10.30;;;7.23;;
4074;SDS011;2052;53.522;9.806;2022-12-29T02:06:12;12.13;;;6.40;;
4074;SDS011;2052;53.522;9.806;2022-12-29T02:08:41;9.20;;;6.17;;
4074;SDS011;2052;53.522;9.806;2022-12-29T02:11:11;9.97;;;7.30;;
4074;SDS011;2052;53.522;9.806;2022-12-29T02:13:37;10.30;;;6.63;;
4074;SDS011;2052;53.522;9.806;2022-12-29T02:16:07;10.33;;;6.53;;
4074;SDS011;2052;53.522;9.806;2022-12-29T02:18:43;8.77;;;6.03;;
4074;SDS011;2052;53.522;9.806;2022-12-29T02:21:20;8.40;;;6.23;;
4074;SDS011;2052;53.522;9.806;2022-12-29T02:24:19;8.27;;;6.33;;
4074;SDS011;2052;53.522;9.806;2022-12-29T02:27:36;8.40;;;6.40;;
4074;SDS011;2052;53.522;9.806;2022-12-29T02:30:28;8.23;;;5.80;;
4074;SDS011;2052;53.522;9.806;2022-12-29T02:32:59;8.57;;;5.67;;
4074;SDS011;2052;53.522;9.806;2022-12-29T02:35:32;7.73;;;5.40;;
4074;SDS011;2052;53.522;9.806;2022-12-29T02:38:03;6.60;;;5.60;;
4074;SDS011;2052;53.522;9.806;2022-12-29T02:40:37;7.70;;;5.80;;
4074;SDS011;2052;53.522;9.806;2022-12-29T02:43:08;7.70;;;5.80;;
4074;SDS011;2052;53.522;9.806;2022-12-29T02:45:43;7.53;;;6.10;;
4074;SDS011;2052;53.522;9.806;2022-12-29T02:48:15;7.33;;;5.80;;
4074;SDS011;2052;53.522;9.806;2022-12-29T02:50:47;5.53;;;4.90;;
4074;SDS011;2052;53.522;9.806;2022-12-29T02:53:17;7.83;;;5.70;;
4074;SDS011;2052;53.522;9.806;2022-12-29T02:56:06;6.80;;;4.97;;
4074;SDS011;2052;53.522;9.806;2022-12-29T02:58:32;7.77;;;6.33;;
4074;SDS011;2052;53.522;9.806;2022-12-29T03:01:05;7.57;;;6.27;;
4074;SDS011;2052;53.522;9.806;2022-12-29T03:03:41;6.43;;;5.00;;
4074;SDS011;2052;53.522;9.806;2022-12-29T03:06:19;7.00;;;5.27;;
4074;SDS011;2052;53.522;9.806;2022-12-29T03:08:53;7.50;;;5.27;;
4074;SDS011;2052;53.522;9.806;2022-12-29T03:11:24;7.43;;;5.20;;
4074;SDS011;2052;53.522;9.806;2022-12-29T03:14:23;5.70;;;5.10;;
4074;SDS011;2052;53.522;9.806;2022-12-29T03:17:17;7.30;;;5.37;;
4074;SDS011;2052;53.522;9.806;2022-12-29T03:19:46;6.70;;;5.20;;
4074;SDS011;2052;53.522;9.806;2022-12-29T03:22:16;5.50;;;4.47;;
4074;SDS011;2052;53.522;9.806;2022-12-29T03:24:56;6.57;;;5.47;;
4074;SDS011;2052;53.522;9.806;2022-12-29T03:27:27;5.33;;;4.80;;
4074;SDS011;2052;53.522;9.806;2022-12-29T03:29:56;6.13;;;4.80;;
4074;SDS011;2052;53.522;9.806;2022-12-29T03:32:28;5.60;;;5.00;;
4074;SDS011;2052;53.522;9.806;2022-12-29T03:34:57;6.90;;;4.97;;
4074;SDS011;2052;53.522;9.806;2022-12-29T03:37:25;4.87;;;4.37;;
4074;SDS011;2052;53.522;9.806;2022-12-29T03:39:55;6.03;;;5.10;;
4074;SDS011;2052;53.522;9.806;2022-12-29T03:42:23;5.20;;;4.70;;
4074;SDS011;2052;53.522;9.806;2022-12-29T03:44:53;6.30;;;5.40;;
4074;SDS011;2052;53.522;9.806;2022-12-29T03:47:20;5.03;;;4.53;;
4074;SDS011;2052;53.522;9.806;2022-12-29T03:49:49;6.47;;;4.80;;
4074;SDS011;2052;53.522;9.806;2022-12-29T03:52:16;4.57;;;4.13;;
4074;SDS011;2052;53.522;9.806;2022-12-29T03:54:43;5.50;;;4.70;;
4074;SDS011;2052;53.522;9.806;2022-12-29T03:57:10;7.10;;;4.40;;
4074;SDS011;2052;53.522;9.806;2022-12-29T03:59:37;5.33;;;4.57;;
4074;SDS011;2052;53.522;9.806;2022-12-29T04:02:04;4.90;;;4.40;;
4074;SDS011;2052;53.522;9.806;2022-12-29T04:04:31;4.97;;;4.37;;
4074;SDS011;2052;53.522;9.806;2022-12-29T04:06:59;6.30;;;4.53;;
4074;SDS011;2052;53.522;9.806;2022-12-29T04:09:26;4.77;;;3.77;;
4074;SDS011;2052;53.522;9.806;2022-12-29T04:11:52;4.40;;;4.00;;
4074;SDS011;2052;53.522;9.806;2022-12-29T04:14:19;4.77;;;4.27;;
4074;SDS011;2052;53.522;9.806;2022-12-29T04:16:46;5.00;;;3.30;;
4074;SDS011;2052;53.522;9.806;2022-12-29T04:19:13;4.67;;;3.23;;
4074;SDS011;2052;53.522;9.806;2022-12-29T04:21:39;4.00;;;3.60;;
4074;SDS011;2052;53.522;9.806;2022-12-29T04:24:06;4.73;;;3.10;;
4074;SDS011;2052;53.522;9.806;2022-12-29T04:26:33;4.53;;;3.70;;
4074;SDS011;2052;53.522;9.806;2022-12-29T04:29:00;3.60;;;3.30;;
4074;SDS011;2052;53.522;9.806;2022-12-29T04:31:27;3.47;;;2.70;;
4074;SDS011;2052;53.522;9.806;2022-12-29T04:33:53;2.83;;;2.63;;
4074;SDS011;2052;53.522;9.806;2022-12-29T04:36:22;3.50;;;2.70;;
4074;SDS011;2052;53.522;9.806;2022-12-29T04:38:49;3.20;;;2.90;;
4074;SDS011;2052;53.522;9.806;2022-12-29T04:41:17;3.07;;;2.80;;
4074;SDS011;2052;53.522;9.806;2022-12-29T04:43:44;4.10;;;2.67;;
4074;SDS011;2052;53.522;9.806;2022-12-29T04:46:10;4.63;;;3.37;;
4074;SDS011;2052;53.522;9.806;2022-12-29T04:48:37;3.17;;;2.87;;
4074;SDS011;2052;53.522;9.806;2022-12-29T04:51:04;2.73;;;2.53;;
4074;SDS011;2052;53.522;9.806;2022-12-29T04:53:31;2.50;;;2.30;;
4074;SDS011;2052;53.522;9.806;2022-12-29T04:55:57;2.80;;;2.60;;
4074;SDS011;2052;53.522;9.806;2022-12-29T04:58:25;2.60;;;2.40;;
4074;SDS011;2052;53.522;9.806;2022-12-29T05:00:52;3.50;;;2.77;;
4074;SDS011;2052;53.522;9.806;2022-12-29T05:03:19;3.63;;;2.73;;
4074;SDS011;2052;53.522;9.806;2022-12-29T05:05:45;3.40;;;2.40;;
4074;SDS011;2052;53.522;9.806;2022-12-29T05:08:12;2.77;;;2.57;;
4074;SDS011;2052;53.522;9.806;2022-12-29T05:10:39;2.63;;;2.30;;
4074;SDS011;2052;53.522;9.806;2022-12-29T05:13:06;2.80;;;2.50;;
4074;SDS011;2052;53.522;9.806;2022-12-29T05:15:34;3.10;;;2.70;;
4074;SDS011;2052;53.522;9.806;2022-12-29T05:18:01;3.10;;;2.90;;
4074;SDS011;2052;53.522;9.806;2022-12-29T05:20:28;3.57;;;3.10;;
4074;SDS011;2052;53.522;9.806;2022-12-29T05:22:55;3.77;;;3.37;;
4074;SDS011;2052;53.522;9.806;2022-12-29T05:25:21;4.87;;;3.50;;
4074;SDS011;2052;53.522;9.806;2022-12-29T05:27:48;4.27;;;3.20;;
4074;SDS011;2052;53.522;9.806;2022-12-29T05:30:15;3.70;;;3.30;;
4074;SDS011;2052;53.522;9.806;2022-12-29T05:32:43;4.20;;;3.20;;
4074;SDS011;2052;53.522;9.806;2022-12-29T05:35:10;3.93;;;3.27;;
4074;SDS011;2052;53.522;9.806;2022-12-29T05:37:37;4.77;;;3.53;;
4074;SDS011;2052;53.522;9.806;2022-12-29T05:40:22;4.13;;;3.33;;
4074;SDS011;2052;53.522;9.806;2022-12-29T05:42:49;4.33;;;3.67;;
4074;SDS011;2052;53.522;9.806;2022-12-29T05:45:15;3.50;;;3.20;;
4074;SDS011;2052;53.522;9.806;2022-12-29T05:47:44;8.83;;;3.97;;
4074;SDS011;2052;53.522;9.806;2022-12-29T05:50:10;5.40;;;3.40;;
4074;SDS011;2052;53.522;9.806;2022-12-29T05:52:37;3.27;;;2.87;;
4074;SDS011;2052;53.522;9.806;2022-12-29T05:55:04;4.97;;;3.37;;
4074;SDS011;2052;53.522;9.806;2022-12-29T05:57:32;3.63;;;3.33;;
4074;SDS011;2052;53.522;9.806;2022-12-29T05:59:59;4.20;;;3.50;;
4074;SDS011;2052;53.522;9.806;2022-12-29T06:02:25;3.20;;;2.87;;
4074;SDS011;2052;53.522;9.806;2022-12-29T06:04:54;3.50;;;3.20;;
4074;SDS011;2052;53.522;9.806;2022-12-29T06:07:20;3.07;;;2.83;;
4074;SDS011;2052;53.522;9.806;2022-12-29T06:09:47;3.60;;;3.30;;
4074;SDS011;2052;53.522;9.806;2022-12-29T06:12:14;3.30;;;3.00;;
4074;SDS011;2052;53.522;9.806;2022-12-29T06:14:41;2.90;;;2.70;;
4074;SDS011;2052;53.522;9.806;2022-12-29T06:17:08;3.73;;;3.10;;
4074;SDS011;2052;53.522;9.806;2022-12-29T06:19:34;2.60;;;2.40;;
4074;SDS011;2052;53.522;9.806;2022-12-29T06:22:03;4.10;;;3.70;;
4074;SDS011;2052;53.522;9.806;2022-12-29T06:24:30;9.17;;;2.80;;
4074;SDS011;2052;53.522;9.806;2022-12-29T06:26:56;3.40;;;2.90;;
4074;SDS011;2052;53.522;9.806;2022-12-29T06:29:23;3.17;;;2.70;;
4074;SDS011;2052;53.522;9.806;2022-12-29T06:31:50;4.00;;;3.37;;
4074;SDS011;2052;53.522;9.806;2022-12-29T06:34:21;3.57;;;3.20;;
4074;SDS011;2052;53.522;9.806;2022-12-29T06:36:48;3.20;;;2.60;;
4074;SDS011;2052;53.522;9.806;2022-12-29T06:39:16;3.27;;;2.97;;
4074;SDS011;2052;53.522;9.806;2022-12-29T06:41:42;4.10;;;3.00;;
4074;SDS011;2052;53.522;9.806;2022-12-29T06:44:09;3.00;;;2.70;;
4074;SDS011;2052;53.522;9.806;2022-12-29T06:46:36;5.93;;;3.43;;
4074;SDS011;2052;53.522;9.806;2022-12-29T06:49:02;2.43;;;2.23;;
4074;SDS011;2052;53.522;9.806;2022-12-29T06:51:29;4.07;;;3.07;;
4074;SDS011;2052;53.522;9.806;2022-12-29T06:53:56;2.90;;;2.63;;
4074;SDS011;2052;53.522;9.806;2022-12-29T06:56:24;2.60;;;2.40;;
4074;SDS011;2052;53.522;9.806;2022-12-29T06:58:51;2.83;;;2.37;;
4074;SDS011;2052;53.522;9.806;2022-12-29T07:01:18;3.13;;;2.83;;
4074;SDS011;2052;53.522;9.806;2022-12-29T07:03:44;2.70;;;2.17;;
4074;SDS011;2052;53.522;9.806;2022-12-29T07:06:11;3.83;;;2.70;;
4074;SDS011;2052;53.522;9.806;2022-12-29T07:08:38;2.57;;;2.30;;
4074;SDS011;2052;53.522;9.806;2022-12-29T07:11:05;3.47;;;2.53;;
4074;SDS011;2052;53.522;9.806;2022-12-29T07:13:33;3.20;;;2.60;;
4074;SDS011;2052;53.522;9.806;2022-12-29T07:16:04;4.27;;;2.43;;
4074;SDS011;2052;53.522;9.806;2022-12-29T07:18:31;2.50;;;2.30;;
4074;SDS011;2052;53.522;9.806;2022-12-29T07:20:58;4.40;;;3.33;;
4074;SDS011;2052;53.522;9.806;2022-12-29T07:23:24;3.10;;;2.80;;
4074;SDS011;2052;53.522;9.806;2022-12-29T07:25:58;3.87;;;3.37;;
4074;SDS011;2052;53.522;9.806;2022-12-29T07:28:25;3.87;;;2.83;;
4074;SDS011;2052;53.522;9.806;2022-12-29T07:30:53;6.80;;;5.50;;
4074;SDS011;2052;53.522;9.806;2022-12-29T07:33:20;4.93;;;3.93;;
4074;SDS011;2052;53.522;9.806;2022-12-29T07:35:46;3.97;;;3.23;;
4074;SDS011;2052;53.522;9.806;2022-12-29T07:38:13;4.43;;;3.50;;
4074;SDS011;2052;53.522;9.806;2022-12-29T07:40:41;7.10;;;3.47;;
4074;SDS011;2052;53.522;9.806;2022-12-29T07:43:08;6.20;;;3.97;;
4074;SDS011;2052;53.522;9.806;2022-12-29T07:45:35;3.47;;;3.17;;
4074;SDS011;2052;53.522;9.806;2022-12-29T07:48:03;3.87;;;3.47;;
4074;SDS011;2052;53.522;9.806;2022-12-29T07:50:33;5.57;;;3.47;;
4074;SDS011;2052;53.522;9.806;2022-12-29T07:53:00;3.60;;;3.20;;
4074;SDS011;2052;53.522;9.806;2022-12-29T07:55:26;2.90;;;2.70;;
4074;SDS011;2052;53.522;9.806;2022-12-29T07:57:53;3.67;;;2.20;;
4074;SDS011;2052;53.522;9.806;2022-12-29T08:00:20;2.20;;;2.10;;
4074;SDS011;2052;53.522;9.806;2022-12-29T08:02:47;2.60;;;2.40;;
4074;SDS011;2052;53.522;9.806;2022-12-29T08:05:15;2.40;;;2.20;;
4074;SDS011;2052;53.522;9.806;2022-12-29T08:07:42;3.23;;;2.20;;
4074;SDS011;2052;53.522;9.806;2022-12-29T08:10:10;2.50;;;2.17;;
4074;SDS011;2052;53.522;9.806;2022-12-29T08:12:37;2.87;;;2.27;;
4074;SDS011;2052;53.522;9.806;2022-12-29T08:15:05;3.07;;;2.87;;
4074;SDS011;2052;53.522;9.806;2022-12-29T08:17:33;2.93;;;2.70;;
4074;SDS011;2052;53.522;9.806;2022-12-29T08:20:00;4.90;;;3.30;;
4074;SDS011;2052;53.522;9.806;2022-12-29T08:22:28;3.20;;;2.97;;
4074;SDS011;2052;53.522;9.806;2022-12-29T08:24:54;5.83;;;3.00;;
4074;SDS011;2052;53.522;9.806;2022-12-29T08:27:21;4.30;;;3.37;;
4074;SDS011;2052;53.522;9.806;2022-12-29T08:29:48;3.77;;;3.10;;
4074;SDS011;2052;53.522;9.806;2022-12-29T08:32:15;3.70;;;3.40;;
4074;SDS011;2052;53.522;9.806;2022-12-29T08:34:42;3.93;;;3.07;;
4074;SDS011;2052;53.522;9.806;2022-12-29T08:37:08;3.60;;;3.00;;
4074;SDS011;2052;53.522;9.806;2022-12-29T08:39:36;2.83;;;2.63;;
4074;SDS011;2052;53.522;9.806;2022-12-29T08:42:03;2.53;;;2.33;;
4074;SDS011;2052;53.522;9.806;2022-12-29T08:44:30;6.13;;;3.00;;
4074;SDS011;2052;53.522;9.806;2022-12-29T08:46:57;3.60;;;2.27;;
4074;SDS011;2052;53.522;9.806;2022-12-29T08:49:23;1.97;;;1.87;;
4074;SDS011;2052;53.522;9.806;2022-12-29T08:51:50;4.13;;;2.60;;
4074;SDS011;2052;53.522;9.806;2022-12-29T08:54:17;3.80;;;2.03;;
4074;SDS011;2052;53.522;9.806;2022-12-29T08:56:45;7.80;;;2.30;;
4074;SDS011;2052;53.522;9.806;2022-12-29T08:59:12;3.50;;;2.03;;
4074;SDS011;2052;53.522;9.806;2022-12-29T09:01:38;1.77;;;1.67;;
4074;SDS011;2052;53.522;9.806;2022-12-29T09:04:06;4.67;;;1.60;;
4074;SDS011;2052;53.522;9.806;2022-12-29T09:06:32;2.73;;;1.60;;
4074;SDS011;2052;53.522;9.806;2022-12-29T09:08:59;2.60;;;2.13;;
4074;SDS011;2052;53.522;9.806;2022-12-29T09:11:26;1.23;;;1.13;;
4074;SDS011;2052;53.522;9.806;2022-12-29T09:13:54;2.60;;;1.50;;
4074;SDS011;2052;53.522;9.806;2022-12-29T09:16:22;1.37;;;1.27;;
4074;SDS011;2052;53.522;9.806;2022-12-29T09:18:49;1.17;;;1.07;;
4074;SDS011;2052;53.522;9.806;2022-12-29T09:21:16;4.70;;;1.70;;
4074;SDS011;2052;53.522;9.806;2022-12-29T09:23:43;2.57;;;1.60;;
4074;SDS011;2052;53.522;9.806;2022-12-29T09:26:10;5.60;;;1.73;;
4074;SDS011;2052;53.522;9.806;2022-12-29T09:28:37;4.23;;;1.47;;
4074;SDS011;2052;53.522;9.806;2022-12-29T09:31:05;4.90;;;1.63;;
4074;SDS011;2052;53.522;9.806;2022-12-29T09:33:32;3.43;;;1.60;;
4074;SDS011;2052;53.522;9.806;2022-12-29T09:35:59;1.93;;;1.43;;
4074;SDS011;2052;53.522;9.806;2022-12-29T09:38:26;3.93;;;1.90;;
4074;SDS011;2052;53.522;9.806;2022-12-29T09:40:54;4.80;;;1.50;;
4074;SDS011;2052;53.522;9.806;2022-12-29T09:43:25;10.47;;;1.70;;
4074;SDS011;2052;53.522;9.806;2022-12-29T09:45:58;3.30;;;1.57;;
4074;SDS011;2052;53.522;9.806;2022-12-29T09:48:32;3.27;;;1.67;;
4074;SDS011;2052;53.522;9.806;2022-12-29T09:51:02;4.97;;;1.77;;
4074;SDS011;2052;53.522;9.806;2022-12-29T09:53:31;4.03;;;1.33;;
4074;SDS011;2052;53.522;9.806;2022-12-29T09:56:00;5.33;;;1.63;;
4074;SDS011;2052;53.522;9.806;2022-12-29T09:58:30;7.40;;;2.13;;
4074;SDS011;2052;53.522;9.806;2022-12-29T10:01:00;2.87;;;1.50;;
4074;SDS011;2052;53.522;9.806;2022-12-29T10:03:35;2.80;;;1.37;;
4074;SDS011;2052;53.522;9.806;2022-12-29T10:06:09;3.77;;;1.40;;
4074;SDS011;2052;53.522;9.806;2022-12-29T10:08:39;4.20;;;1.77;;
4074;SDS011;2052;53.522;9.806;2022-12-29T10:11:11;5.57;;;1.90;;
4074;SDS011;2052;53.522;9.806;2022-12-29T10:13:45;6.00;;;1.50;;
4074;SDS011;2052;53.522;9.806;2022-12-29T10:16:23;4.17;;;2.47;;
4074;SDS011;2052;53.522;9.806;2022-12-29T10:19:05;8.50;;;2.57;;
4074;SDS011;2052;53.522;9.806;2022-12-29T10:21:44;5.70;;;1.47;;
4074;SDS011;2052;53.522;9.806;2022-12-29T10:24:18;7.07;;;1.50;;
4074;SDS011;2052;53.522;9.806;2022-12-29T10:26:48;2.67;;;1.60;;
4074;SDS011;2052;53.522;9.806;2022-12-29T10:29:18;4.20;;;1.53;;
4074;SDS011;2052;53.522;9.806;2022-12-29T10:31:46;5.17;;;2.43;;
4074;SDS011;2052;53.522;9.806;2022-12-29T10:34:18;3.73;;;1.80;;
4074;SDS011;2052;53.522;9.806;2022-12-29T10:36:47;3.60;;;1.30;;
4074;SDS011;2052;53.522;9.806;2022-12-29T10:39:16;4.83;;;1.63;;
4074;SDS011;2052;53.522;9.806;2022-12-29T10:41:48;2.40;;;1.33;;
4074;SDS011;2052;53.522;9.806;2022-12-29T10:44:17;4.17;;;2.07;;
4074;SDS011;2052;53.522;9.806;2022-12-29T10:46:47;7.53;;;1.60;;
4074;SDS011;2052;53.522;9.806;2022-12-29T10:49:20;8.57;;;1.73;;
4074;SDS011;2052;53.522;9.806;2022-12-29T10:51:47;6.17;;;1.90;;
4074;SDS011;2052;53.522;9.806;2022-12-29T10:54:18;3.37;;;1.97;;
4074;SDS011;2052;53.522;9.806;2022-12-29T10:56:49;6.67;;;1.47;;
4074;SDS011;2052;53.522;9.806;2022-12-29T10:59:19;3.20;;;1.37;;
4074;SDS011;2052;53.522;9.806;2022-12-29T11:01:50;3.10;;;1.53;;
4074;SDS011;2052;53.522;9.806;2022-12-29T11:04:32;5.13;;;1.60;;
4074;SDS011;2052;53.522;9.806;2022-12-29T11:07:05;3.87;;;1.50;;
4074;SDS011;2052;53.522;9.806;2022-12-29T11:09:33;5.90;;;1.50;;
4074;SDS011;2052;53.522;9.806;2022-12-29T11:12:07;3.13;;;1.27;;
4074;SDS011;2052;53.522;9.806;2022-12-29T11:14:45;6.13;;;1.70;;
4074;SDS011;2052;53.522;9.806;2022-12-29T11:17:14;6.27;;;1.97;;
4074;SDS011;2052;53.522;9.806;2022-12-29T11:19:43;7.13;;;1.53;;
4074;SDS011;2052;53.522;9.806;2022-12-29T11:22:14;3.73;;;1.60;;
4074;SDS011;2052;53.522;9.806;2022-12-29T11:24:48;5.40;;;1.60;;
4074;SDS011;2052;53.522;9.806;2022-12-29T11:27:16;21.63;;;1.77;;
4074;SDS011;2052;53.522;9.806;2022-12-29T11:29:44;2.80;;;1.20;;
4074;SDS011;2052;53.522;9.806;2022-12-29T11:32:12;3.90;;;1.30;;
4074;SDS011;2052;53.522;9.806;2022-12-29T11:34:44;2.40;;;1.33;;
4074;SDS011;2052;53.522;9.806;2022-12-29T11:37:12;2.60;;;1.37;;
4074;SDS011;2052;53.522;9.806;2022-12-29T11:39:41;2.23;;;1.27;;
4074;SDS011;2052;53.522;9.806;2022-12-29T11:42:13;8.30;;;1.23;;
4074;SDS011;2052;53.522;9.806;2022-12-29T11:44:42;3.40;;;1.00;;
4074;SDS011;2052;53.522;9.806;2022-12-29T11:47:12;0.80;;;0.80;;
4074;SDS011;2052;53.522;9.806;2022-12-29T11:49:40;1.87;;;1.20;;
4074;SDS011;2052;53.522;9.806;2022-12-29T11:52:08;4.00;;;1.03;;
4074;SDS011;2052;53.522;9.806;2022-12-29T11:54:36;3.57;;;1.20;;
4074;SDS011;2052;53.522;9.806;2022-12-29T11:57:08;4.00;;;1.33;;
4074;SDS011;2052;53.522;9.806;2022-12-29T11:59:38;3.17;;;1.20;;
4074;SDS011;2052;53.522;9.806;2022-12-29T12:02:19;2.10;;;1.90;;
4074;SDS011;2052;53.522;9.806;2022-12-29T12:05:07;2.07;;;1.30;;
4074;SDS011;2052;53.522;9.806;2022-12-29T12:07:39;6.53;;;1.50;;
4074;SDS011;2052;53.522;9.806;2022-12-29T12:10:11;1.67;;;1.20;;
4074;SDS011;2052;53.522;9.806;2022-12-29T12:12:44;7.27;;;1.40;;
4074;SDS011;2052;53.522;9.806;2022-12-29T12:15:15;5.67;;;1.77;;
4074;SDS011;2052;53.522;9.806;2022-12-29T12:17:47;4.60;;;1.93;;
4074;SDS011;2052;53.522;9.806;2022-12-29T12:20:17;3.83;;;1.30;;
4074;SDS011;2052;53.522;9.806;2022-12-29T12:22:50;4.53;;;1.53;;
4074;SDS011;2052;53.522;9.806;2022-12-29T12:25:21;3.37;;;1.40;;
4074;SDS011;2052;53.522;9.806;2022-12-29T12:27:51;4.97;;;1.37;;
4074;SDS011;2052;53.522;9.806;2022-12-29T12:30:20;4.23;;;1.40;;
4074;SDS011;2052;53.522;9.806;2022-12-29T12:32:48;11.70;;;2.87;;
4074;SDS011;2052;53.522;9.806;2022-12-29T12:35:20;7.50;;;1.60;;
4074;SDS011;2052;53.522;9.806;2022-12-29T12:37:59;8.63;;;1.70;;
4074;SDS011;2052;53.522;9.806;2022-12-29T12:40:43;5.17;;;1.60;;
4074;SDS011;2052;53.522;9.806;2022-12-29T12:43:25;4.80;;;1.93;;
4074;SDS011;2052;53.522;9.806;2022-12-29T12:46:05;4.80;;;1.57;;
4074;SDS011;2052;53.522;9.806;2022-12-29T12:48:44;9.60;;;1.80;;
4074;SDS011;2052;53.522;9.806;2022-12-29T12:51:20;6.10;;;1.90;;
4074;SDS011;2052;53.522;9.806;2022-12-29T12:53:58;4.93;;;1.87;;
4074;SDS011;2052;53.522;9.806;2022-12-29T12:59:30;11.40;;;1.83;;
4074;SDS011;2052;53.522;9.806;2022-12-29T13:02:09;3.73;;;1.60;;
4074;SDS011;2052;53.522;9.806;2022-12-29T13:04:48;9.20;;;2.17;;
4074;SDS011;2052;53.522;9.806;2022-12-29T13:07:26;6.80;;;1.77;;
4074;SDS011;2052;53.522;9.806;2022-12-29T13:10:01;4.33;;;1.30;;
4074;SDS011;2052;53.522;9.806;2022-12-29T13:12:35;5.03;;;1.63;;
4074;SDS011;2052;53.522;9.806;2022-12-29T13:15:12;5.40;;;2.13;;
4074;SDS011;2052;53.522;9.806;2022-12-29T13:17:46;14.63;;;2.20;;
4074;SDS011;2052;53.522;9.806;2022-12-29T13:20:19;6.30;;;2.37;;
4074;SDS011;2052;53.522;9.806;2022-12-29T13:22:51;4.30;;;2.00;;
4074;SDS011;2052;53.522;9.806;2022-12-29T13:25:29;4.87;;;1.87;;
4074;SDS011;2052;53.522;9.806;2022-12-29T13:28:00;4.73;;;1.97;;
4074;SDS011;2052;53.522;9.806;2022-12-29T13:30:30;6.30;;;1.53;;
4074;SDS011;2052;53.522;9.806;2022-12-29T13:33:03;7.33;;;2.20;;
4074;SDS011;2052;53.522;9.806;2022-12-29T13:35:43;3.53;;;1.33;;
4074;SDS011;2052;53.522;9.806;2022-12-29T13:38:21;5.20;;;1.70;;
4074;SDS011;2052;53.522;9.806;2022-12-29T13:40:52;3.87;;;1.57;;
4074;SDS011;2052;53.522;9.806;2022-12-29T13:43:20;2.70;;;1.50;;
4074;SDS011;2052;53.522;9.806;2022-12-29T13:45:48;4.27;;;2.70;;
4074;SDS011;2052;53.522;9.806;2022-12-29T13:48:24;7.43;;;2.00;;
4074;SDS011;2052;53.522;9.806;2022-12-29T13:50:58;7.10;;;2.23;;
4074;SDS011;2052;53.522;9.806;2022-12-29T13:53:27;3.93;;;2.30;;
4074;SDS011;2052;53.522;9.806;2022-12-29T13:56:02;3.90;;;2.13;;
4074;SDS011;2052;53.522;9.806;2022-12-29T13:58:31;3.93;;;1.70;;
4074;SDS011;2052;53.522;9.806;2022-12-29T14:01:03;8.63;;;2.00;;
4074;SDS011;2052;53.522;9.806;2022-12-29T14:03:44;2.80;;;1.50;;
4074;SDS011;2052;53.522;9.806;2022-12-29T14:06:15;5.47;;;1.27;;
4074;SDS011;2052;53.522;9.806;2022-12-29T14:08:46;3.10;;;1.03;;
4074;SDS011;2052;53.522;9.806;2022-12-29T14:11:15;2.47;;;1.10;;
4074;SDS011;2052;53.522;9.806;2022-12-29T14:13:44;5.97;;;1.40;;
4074;SDS011;2052;53.522;9.806;2022-12-29T14:16:21;3.73;;;1.20;;
4074;SDS011;2052;53.522;9.806;2022-12-29T14:18:52;8.63;;;1.13;;
4074;SDS011;2052;53.522;9.806;2022-12-29T14:21:20;4.80;;;1.37;;
4074;SDS011;2052;53.522;9.806;2022-12-29T14:23:49;2.20;;;1.10;;
4074;SDS011;2052;53.522;9.806;2022-12-29T14:26:34;2.47;;;1.07;;
4074;SDS011;2052;53.522;9.806;2022-12-29T14:38:13;3.93;;;1.70;;
4074;SDS011;2052;53.522;9.806;2022-12-29T14:40:45;9.80;;;1.57;;
4074;SDS011;2052;53.522;9.806;2022-12-29T14:43:17;1.40;;;1.20;;
4074;SDS011;2052;53.522;9.806;2022-12-29T14:45:51;2.67;;;1.57;;
4074;SDS011;2052;53.522;9.806;2022-12-29T14:48:33;2.97;;;1.57;;
4074;SDS011;2052;53.522;9.806;2022-12-29T14:51:02;5.03;;;1.70;;
4074;SDS011;2052;53.522;9.806;2022-12-29T14:53:45;6.00;;;1.60;;
4074;SDS011;2052;53.522;9.806;2022-12-29T14:56:13;8.30;;;2.70;;
4074;SDS011;2052;53.522;9.806;2022-12-29T14:58:45;7.10;;;2.33;;
4074;SDS011;2052;53.522;9.806;2022-12-29T15:01:22;6.00;;;1.50;;
4074;SDS011;2052;53.522;9.806;2022-12-29T15:03:53;6.10;;;1.77;;
4074;SDS011;2052;53.522;9.806;2022-12-29T15:06:23;7.50;;;2.07;;
4074;SDS011;2052;53.522;9.806;2022-12-29T15:08:51;5.67;;;2.10;;
4074;SDS011;2052;53.522;9.806;2022-12-29T15:11:21;3.50;;;2.20;;
4074;SDS011;2052;53.522;9.806;2022-12-29T15:13:51;4.60;;;1.97;;
4074;SDS011;2052;53.522;9.806;2022-12-29T15:16:22;4.03;;;1.87;;
4074;SDS011;2052;53.522;9.806;2022-12-29T15:18:50;6.63;;;2.50;;
4074;SDS011;2052;53.522;9.806;2022-12-29T15:21:17;7.43;;;2.80;;
4074;SDS011;2052;53.522;9.806;2022-12-29T15:23:48;4.73;;;2.23;;
4074;SDS011;2052;53.522;9.806;2022-12-29T15:26:15;4.37;;;1.97;;
4074;SDS011;2052;53.522;9.806;2022-12-29T15:28:47;7.30;;;4.00;;
4074;SDS011;2052;53.522;9.806;2022-12-29T15:31:17;9.07;;;6.43;;
4074;SDS011;2052;53.522;9.806;2022-12-29T15:33:45;13.73;;;6.10;;
4074;SDS011;2052;53.522;9.806;2022-12-29T15:36:13;14.03;;;4.50;;
4074;SDS011;2052;53.522;9.806;2022-12-29T15:38:41;8.17;;;3.40;;
4074;SDS011;2052;53.522;9.806;2022-12-29T15:41:16;10.70;;;4.07;;
4074;SDS011;2052;53.522;9.806;2022-12-29T15:43:52;9.33;;;4.07;;
4074;SDS011;2052;53.522;9.806;2022-12-29T15:46:25;6.30;;;4.43;;